Airfield :
LOGIN :

Register | Disclaimer

   EN    FR    IT 

 










Legend :    VFR   Marginal VFR   IFR   Intensive IFR   Very Intensive IFR
Visi :
Ceiling :
>= 8 km
>= 3000ft
5 to 8 km
1000 to 3000 ft
1500m to 5 km
500 to 1000 ft
800 to 1500m
200 to 500 ft
< 800m
< 200 ft
Symbols :   Thunderstorms  Fog  Heavy snow  Heavy precipitations  Wind > 20 kt
SIGMETs :     Misc.  Thunderstorms  Icing  Turbulence  Mountain Waves  Volcanic Ashes







- Airport Elevation : 526 ft
- IATA code : LTN
- Download approach charts


EGGW - London Luton

CURRENT METAR :
  • 241520Z AUTO 22005KT 9999 NCD 23/17 Q1016

EXPIRED METARs :
  • 241450Z AUTO 23007KT 9999 NCD 24/18 Q1016
  • 241420Z AUTO 20008KT 150V220 9999 NCD 23/17 Q1017
  • 241350Z AUTO 20007KT 9999 NCD 23/17 Q1016
  • 241320Z AUTO 18006KT 140V210 9999 NCD 23/18 Q1016
  • 241250Z AUTO 19005KT 140V230 9999 NCD 23/18 Q1016
  • 241220Z AUTO 20006KT 150V230 9999 NCD 23/18 Q1016

TAF TAF EGGW
Valid from the 24 at 12:00 until the 25 at 12:00 UTC


241107Z 2412/2512 VRB04KT 9999 FEW045
BECMG 2421/2424 01010KT 7000 RA
TEMPO 2422/2506 3000 +RA TSRA
PROB30
TEMPO 2501/2505 VRB15G25KT 1200 +TSRA BKN003 BKN045CB
BECMG 2505/2507 9999 NSW BKN003
PROB40 2507/2512 8000
BECMG 2509/2512 BKN005
ATIS : +44 1582 395 204
No reported NOTAMs for that airfield.
1 SIGMET reported for the London FIR (EGTT) :
 
Embedded thunderstorms
EGTT SIGMET 06 VALID 241400/241700 EGRR
EGTT LONDON FIR EMBD TS FCST WI N5429 E00041 - N5357 W00159 - N5500 W00259 - N5500 E00106 - N5429 E00041 TOP FL320 MOV NE 20KT NC=



MET'MAP, your aeronautical weather chart ! - Copyright ORBIFLY December 2007 - Disclaimer

ORBIFLY MET'MAP TEAM :

Programming & Development : Alexandra Zaïnal
Concept & Development : Baudouin d'Aumeries
Co-Development & Prog : Marc-Olivier Méhu
Technical & hardware support : Manuel Goepfert

Contact : metmap@orbifly.com




SOURCES & CREDITS :

   NOAA